Time;durP1;ratioP1;P1;durP2;ratioP2;P2;SDS_P1;SDS_P2;PMS_P1;PMS_P2;Temp;Humidity;BMP_temperature;BMP_pressure;BME280_temperature;BME280_humidity;BME280_pressure;Samples;Min_cycle;Max_cycle;Signal;HPM_P1;HPM_P2
2023/02/24 00:00:31;;;;;;;1.73;1.27;;;;;;;9.27;58.67;101106.56;6231008;28;20247;-69
2023/02/24 00:03:52;;;;;;;3.33;1.90;;;;;;;8.90;59.54;101102.38;6227296;28;20274;-69
2023/02/24 00:07:15;;;;;;;1.60;1.00;;;;;;;8.81;59.90;101097.72;6218010;28;20228;-67
2023/02/24 00:10:36;;;;;;;2.03;0.90;;;;;;;8.87;59.93;101099.91;6240424;28;20333;-70
2023/02/24 00:13:59;;;;;;;1.00;0.83;;;;;;;7.96;62.46;101103.38;6221069;28;20323;-69
2023/02/24 00:17:22;;;;;;;1.83;1.20;;;;;;;8.54;61.60;101095.34;6224886;28;20260;-69
2023/02/24 00:20:43;;;;;;;4.03;0.70;;;;;;;8.40;61.97;101090.19;6234730;28;20254;-69
2023/02/24 00:24:06;;;;;;;7.50;1.40;;;;;;;8.22;62.70;101088.00;6235416;28;20622;-69
2023/02/24 00:27:27;;;;;;;3.03;1.00;;;;;;;8.33;62.78;101080.88;6250107;28;20220;-69
2023/02/24 00:30:49;;;;;;;1.37;1.27;;;;;;;8.32;62.98;101081.00;6269967;28;21982;-69
2023/02/24 00:34:12;;;;;;;1.30;0.67;;;;;;;8.34;62.53;101079.03;6269051;28;20697;-68
2023/02/24 00:37:32;;;;;;;2.27;1.30;;;;;;;8.50;62.20;101076.88;6247670;28;20539;-69
2023/02/24 00:40:55;;;;;;;0.80;0.80;;;;;;;8.04;62.20;101068.75;6248128;28;20226;-68
2023/02/24 00:44:15;;;;;;;1.20;1.10;;;;;;;8.39;61.38;101061.59;6236079;28;20556;-70
2023/02/24 00:47:40;;;;;;;0.97;0.97;;;;;;;8.70;59.47;101049.31;6229530;28;20227;-67
2023/02/24 00:51:01;;;;;;;2.00;1.03;;;;;;;7.72;62.10;101038.94;6222719;28;20233;-69
2023/02/24 00:54:26;;;;;;;1.77;1.37;;;;;;;7.98;61.28;101037.88;6215709;28;20789;-69
2023/02/24 00:57:49;;;;;;;2.47;1.50;;;;;;;8.08;59.11;101038.88;6235057;28;20633;-69
2023/02/24 01:01:15;;;;;;;1.70;0.97;;;;;;;8.11;60.07;101034.25;6223240;28;20231;-69
2023/02/24 01:04:37;;;;;;;2.10;1.43;;;;;;;7.81;61.93;101030.22;6222818;28;20263;-68
2023/02/24 01:08:00;;;;;;;1.60;1.17;;;;;;;7.95;62.21;101024.66;6236938;28;20227;-68
2023/02/24 01:15:07;;;;;;;2.77;1.10;;;;;;;8.43;60.45;101003.97;6219599;28;20621;-70
2023/02/24 01:18:29;;;;;;;1.60;1.00;;;;;;;8.51;60.37;100995.31;6238125;28;20231;-69
2023/02/24 01:21:54;;;;;;;2.33;1.13;;;;;;;7.46;64.79;100994.44;6224445;28;20676;-69
2023/02/24 01:25:15;;;;;;;2.40;1.27;;;;;;;7.60;63.11;100980.84;6218691;28;20290;-69
2023/02/24 01:28:36;;;;;;;3.40;1.53;;;;;;;7.61;63.73;100985.25;6230834;28;20233;-68
2023/02/24 01:31:57;;;;;;;6.63;1.63;;;;;;;7.66;63.37;100972.34;6212732;28;20224;-69
2023/02/24 01:35:19;;;;;;;1.70;1.60;;;;;;;8.19;62.35;100973.63;6222028;28;20354;-69
2023/02/24 01:38:44;;;;;;;4.07;2.10;;;;;;;7.82;62.37;100972.88;6225507;28;20945;-68
2023/02/24 01:42:05;;;;;;;4.80;2.07;;;;;;;8.11;61.27;100967.13;6227749;28;20247;-68
2023/02/24 01:45:28;;;;;;;3.70;1.60;;;;;;;7.79;63.02;100964.22;6220664;28;20251;-68
2023/02/24 01:48:52;;;;;;;2.20;0.97;;;;;;;7.84;62.17;100956.69;6214336;28;20285;-69
2023/02/24 01:52:16;;;;;;;5.70;1.67;;;;;;;7.45;63.34;100952.47;6207162;28;20229;-67
2023/02/24 01:55:45;;;;;;;8.23;1.60;;;;;;;7.37;63.67;100945.97;6223880;28;20684;-69
2023/02/24 01:59:09;;;;;;;3.07;1.10;;;;;;;7.22;63.74;100946.16;6207185;28;20232;-69
2023/02/24 02:02:33;;;;;;;1.83;1.20;;;;;;;7.48;63.15;100941.53;6206856;28;20256;-68
2023/02/24 02:06:00;;;;;;;2.50;1.40;;;;;;;7.13;64.55;100944.13;6212030;28;20539;-69
2023/02/24 02:09:22;;;;;;;2.07;1.47;;;;;;;7.19;64.43;100935.66;6215194;28;20248;-69
2023/02/24 02:12:46;;;;;;;1.10;0.93;;;;;;;7.06;65.09;100931.31;6232993;28;20228;-69
2023/02/24 02:16:34;;;;;;;1.83;0.83;;;;;;;6.89;65.75;100923.63;6230657;28;20234;-69
2023/02/24 02:20:18;;;;;;;1.80;1.37;;;;;;;6.92;65.10;100904.66;6235859;28;20530;-68
2023/02/24 02:23:57;;;;;;;4.77;2.23;;;;;;;6.95;65.33;100901.75;6222667;28;20281;-69
2023/02/24 02:27:37;;;;;;;1.27;1.17;;;;;;;7.41;63.66;100900.03;6229345;28;20236;-69
2023/02/24 02:31:28;;;;;;;1.73;1.43;;;;;;;7.63;63.56;100892.09;6227972;28;21075;-69
2023/02/24 02:34:56;;;;;;;1.13;1.00;;;;;;;7.70;62.18;100893.31;6217139;28;20228;-69
2023/02/24 02:38:25;;;;;;;2.90;1.43;;;;;;;7.16;64.28;100892.13;6229430;28;20239;-69
2023/02/24 02:41:54;;;;;;;2.07;1.97;;;;;;;7.19;63.97;100878.50;6205401;28;20239;-69
2023/02/24 02:45:21;;;;;;;1.40;1.30;;;;;;;6.65;65.75;100880.75;6240363;28;20231;-69
2023/02/24 02:48:48;;;;;;;5.67;1.30;;;;;;;7.03;64.18;100876.09;6234729;28;20246;-68
2023/02/24 02:52:16;;;;;;;4.57;2.20;;;;;;;7.15;64.75;100866.31;6206693;28;20233;-69
2023/02/24 02:55:42;;;;;;;2.60;1.20;;;;;;;7.01;63.98;100869.13;6198876;28;20232;-69
2023/02/24 02:59:06;;;;;;;3.23;1.10;;;;;;;6.77;64.99;100860.25;6190051;28;20241;-67
2023/02/24 03:02:38;;;;;;;4.40;1.03;;;;;;;7.26;63.86;100850.25;6216810;28;20237;-69
2023/02/24 03:06:04;;;;;;;1.90;1.77;;;;;;;6.90;64.25;100856.56;6213713;28;20231;-69
2023/02/24 03:09:30;;;;;;;4.93;1.57;;;;;;;6.88;64.70;100834.38;6221611;28;20523;-69
2023/02/24 03:12:54;;;;;;;3.37;1.87;;;;;;;7.26;63.08;100835.03;6203678;28;20240;-69
2023/02/24 03:16:16;;;;;;;4.67;1.17;;;;;;;6.88;64.18;100833.53;6205766;28;20228;-69
2023/02/24 03:19:39;;;;;;;7.33;1.87;;;;;;;7.26;63.06;100824.31;6199586;28;20240;-69
2023/02/24 03:23:04;;;;;;;4.40;1.50;;;;;;;6.97;64.08;100817.59;6239188;28;20949;-68
2023/02/24 03:26:30;;;;;;;6.83;1.40;;;;;;;6.65;64.91;100821.81;6203004;28;20227;-68
2023/02/24 03:29:55;;;;;;;1.80;1.07;;;;;;;7.13;63.52;100806.59;6216894;28;20240;-68
2023/02/24 03:33:22;;;;;;;0.73;0.73;;;;;;;6.76;64.48;100800.44;6239120;28;20362;-69
2023/02/24 03:36:44;;;;;;;4.90;1.10;;;;;;;6.99;63.69;100793.34;6224836;28;20824;-68
2023/02/24 03:40:14;;;;;;;2.43;1.57;;;;;;;6.59;65.55;100790.16;6243355;28;20590;-69
2023/02/24 03:43:41;;;;;;;0.97;0.90;;;;;;;6.58;65.41;100776.84;6236535;28;20228;-69
2023/02/24 03:47:02;;;;;;;2.00;1.10;;;;;;;7.21;63.62;100772.00;6243769;28;20236;-69
2023/02/24 03:50:25;;;;;;;2.60;2.40;;;;;;;6.96;63.62;100774.84;6216553;28;20228;-68
2023/02/24 03:54:09;;;;;;;1.90;1.30;;;;;;;7.05;63.47;100766.94;6230430;28;20533;-68
2023/02/24 03:57:54;;;;;;;1.73;1.60;;;;;;;6.67;64.08;100766.31;6221313;28;20546;-69
2023/02/24 04:01:29;;;;;;;0.70;0.70;;;;;;;6.67;64.04;100746.72;6232763;28;20634;-69
2023/02/24 04:04:57;;;;;;;1.43;1.33;;;;;;;6.60;64.28;100732.06;6203121;28;20681;-69
2023/02/24 04:08:38;;;;;;;5.33;1.10;;;;;;;6.67;63.96;100736.00;6226456;28;20240;-69
2023/02/24 04:12:08;;;;;;;6.27;1.27;;;;;;;6.68;64.30;100725.16;6218115;28;20232;-68
2023/02/24 04:15:36;;;;;;;1.47;1.07;;;;;;;6.82;63.96;100716.94;6223514;28;20244;-68
2023/02/24 04:19:04;;;;;;;9.10;3.17;;;;;;;6.79;64.81;100693.06;6225354;28;20773;-69
2023/02/24 04:22:31;;;;;;;3.87;1.83;;;;;;;6.87;64.57;100693.34;6222328;28;20725;-70
2023/02/24 04:25:55;;;;;;;2.03;1.30;;;;;;;6.95;64.16;100674.84;6235222;28;20797;-69
2023/02/24 04:29:23;;;;;;;2.50;1.20;;;;;;;6.90;64.75;100678.84;6234857;28;20237;-69
2023/02/24 04:32:44;;;;;;;4.47;1.87;;;;;;;6.68;65.42;100666.22;6236032;28;20606;-69
2023/02/24 04:36:08;;;;;;;1.53;1.20;;;;;;;6.72;65.70;100667.72;6226260;28;20255;-70
2023/02/24 04:39:37;;;;;;;1.67;1.30;;;;;;;6.83;65.45;100656.16;6236050;28;20247;-69
2023/02/24 04:43:01;;;;;;;1.40;1.10;;;;;;;6.78;65.58;100644.97;6217436;28;20330;-69
2023/02/24 04:46:22;;;;;;;5.77;1.90;;;;;;;6.76;65.97;100642.38;6231028;28;20514;-69
2023/02/24 04:49:43;;;;;;;1.10;0.80;;;;;;;6.43;67.14;100632.44;6222810;28;20330;-70
2023/02/24 04:53:08;;;;;;;2.37;1.97;;;;;;;6.61;67.51;100626.66;6226525;28;20232;-69
2023/02/24 04:56:29;;;;;;;3.03;1.60;;;;;;;6.63;67.12;100612.19;6234449;28;20236;-68
2023/02/24 04:59:52;;;;;;;3.27;1.37;;;;;;;7.02;66.88;100606.41;6221488;28;22021;-69
2023/02/24 05:03:13;;;;;;;1.60;1.10;;;;;;;7.05;66.41;100590.06;6233948;28;20236;-68
2023/02/24 05:06:34;;;;;;;2.57;1.13;;;;;;;6.71;67.53;100582.13;6233142;28;20875;-68
2023/02/24 05:09:57;;;;;;;2.57;1.30;;;;;;;6.33;69.86;100590.41;6217115;28;20846;-69
2023/02/24 05:13:20;;;;;;;1.03;1.03;;;;;;;6.24;70.48;100573.22;6236044;28;20236;-68
2023/02/24 05:16:42;;;;;;;1.63;1.00;;;;;;;6.34;70.32;100560.00;6226193;28;20227;-68
2023/02/24 05:23:44;;;;;;;1.00;0.90;;;;;;;5.89;71.38;100544.75;6227485;28;20526;-69
2023/02/24 05:27:06;;;;;;;4.30;2.40;;;;;;;6.40;69.50;100528.25;6223659;28;20240;-69
2023/02/24 05:30:29;;;;;;;1.23;1.20;;;;;;;6.07;70.46;100533.50;6222333;28;20326;-68
2023/02/24 05:33:54;;;;;;;1.23;0.80;;;;;;;6.56;69.49;100532.41;6232491;28;20233;-69
2023/02/24 05:37:15;;;;;;;2.10;1.27;;;;;;;6.41;70.10;100527.28;6232413;28;20265;-68
2023/02/24 05:40:44;;;;;;;1.93;1.43;;;;;;;6.97;67.61;100503.22;6235414;28;20229;-68
2023/02/24 05:44:08;;;;;;;3.03;1.03;;;;;;;6.21;69.70;100501.22;6219867;28;20223;-68
2023/02/24 05:47:29;;;;;;;1.07;0.97;;;;;;;6.47;69.47;100504.53;6247428;28;20228;-69
2023/02/24 05:50:53;;;;;;;0.97;0.97;;;;;;;6.68;68.90;100485.94;6238892;28;20235;-68
2023/02/24 05:54:14;;;;;;;1.40;1.00;;;;;;;6.34;70.19;100480.53;6221101;28;20774;-69
2023/02/24 05:57:36;;;;;;;3.20;1.70;;;;;;;6.25;70.23;100489.31;6234453;28;20224;-70
2023/02/24 06:01:04;;;;;;;2.20;1.00;;;;;;;6.31;70.90;100474.59;6226695;28;20227;-70
2023/02/24 06:04:38;;;;;;;4.27;1.30;;;;;;;6.58;70.20;100463.53;6232929;28;20234;-69
2023/02/24 06:08:04;;;;;;;1.73;1.40;;;;;;;6.59;69.53;100455.41;6239984;28;20228;-69
2023/02/24 06:11:25;;;;;;;2.47;1.43;;;;;;;6.50;71.35;100456.13;6209259;28;20626;-68
2023/02/24 06:14:47;;;;;;;5.00;2.43;;;;;;;6.42;72.77;100451.34;6220968;28;20277;-70
2023/02/24 06:18:10;;;;;;;1.73;1.27;;;;;;;6.66;72.78;100453.91;6233585;28;20233;-69
2023/02/24 06:21:31;;;;;;;2.50;1.57;;;;;;;6.68;72.80;100461.81;6236678;28;20236;-69
2023/02/24 06:24:54;;;;;;;2.17;1.17;;;;;;;6.57;73.45;100443.09;6220646;28;20518;-69
2023/02/24 06:28:15;;;;;;;2.90;1.30;;;;;;;6.45;74.61;100440.41;6232126;28;20232;-68
2023/02/24 06:31:35;;;;;;;1.30;1.20;;;;;;;6.22;76.80;100452.06;6236621;28;20586;-68
2023/02/24 06:34:58;;;;;;;2.03;1.13;;;;;;;5.94;78.89;100431.09;6229315;28;20232;-69
2023/02/24 06:38:19;;;;;;;1.97;0.87;;;;;;;5.86;79.23;100441.50;6236067;28;20232;-68
2023/02/24 06:41:41;;;;;;;5.43;2.23;;;;;;;5.83;81.28;100428.34;6232958;28;20240;-68
2023/02/24 06:45:02;;;;;;;1.47;1.23;;;;;;;5.81;80.89;100421.41;6214015;28;20555;-69
2023/02/24 06:48:23;;;;;;;2.63;1.83;;;;;;;5.80;80.76;100423.22;6233916;28;20944;-68
2023/02/24 06:51:47;;;;;;;3.97;1.53;;;;;;;5.85;81.83;100417.56;6235263;28;20240;-69
2023/02/24 06:55:24;;;;;;;3.87;1.83;;;;;;;5.69;81.57;100405.31;6217313;28;20215;-70
2023/02/24 06:58:47;;;;;;;4.40;1.57;;;;;;;5.79;82.41;100400.13;6220855;28;20273;-69
2023/02/24 07:02:10;;;;;;;1.80;1.10;;;;;;;5.75;82.92;100397.81;6230234;28;20240;-70
2023/02/24 07:05:33;;;;;;;1.97;1.73;;;;;;;5.54;82.67;100401.16;6227462;28;20593;-70
2023/02/24 07:08:57;;;;;;;3.00;1.33;;;;;;;5.55;82.55;100385.94;6218132;28;20228;-68
2023/02/24 07:12:19;;;;;;;2.00;1.90;;;;;;;5.46;84.05;100379.50;6217608;28;20236;-67
2023/02/24 07:15:47;;;;;;;3.07;1.10;;;;;;;5.43;84.90;100384.22;6234648;28;20593;-70
2023/02/24 07:19:12;;;;;;;1.70;1.60;;;;;;;5.79;83.91;100359.16;6220025;28;20240;-69
2023/02/24 07:22:34;;;;;;;11.07;2.37;;;;;;;5.91;83.61;100355.56;6235846;28;20355;-69
2023/02/24 07:25:57;;;;;;;2.43;2.33;;;;;;;5.37;84.50;100355.28;6225584;28;20239;-69
2023/02/24 07:29:18;;;;;;;1.07;1.00;;;;;;;5.65;84.13;100344.19;6224403;28;20237;-69
2023/02/24 07:32:39;;;;;;;1.03;1.03;;;;;;;5.17;84.98;100339.91;6238808;28;20232;-72
2023/02/24 07:36:03;;;;;;;2.63;2.27;;;;;;;5.51;84.85;100333.69;6235573;28;20236;-71
2023/02/24 07:39:25;;;;;;;1.67;1.53;;;;;;;5.74;84.53;100324.75;6222978;28;20231;-72
2023/02/24 07:42:47;;;;;;;1.30;1.20;;;;;;;5.83;83.77;100317.84;6232769;28;20232;-71
2023/02/24 07:46:11;;;;;;;3.13;2.20;;;;;;;5.51;85.02;100320.31;6227899;28;20231;-68
2023/02/24 07:49:33;;;;;;;2.37;1.37;;;;;;;5.46;85.59;100323.38;6218157;28;20833;-69
2023/02/24 07:52:54;;;;;;;2.67;1.53;;;;;;;5.22;85.26;100313.69;6232013;28;20232;-69
2023/02/24 07:56:16;;;;;;;1.43;1.27;;;;;;;5.12;87.53;100299.31;6230372;28;20232;-70
2023/02/24 07:59:39;;;;;;;1.87;1.70;;;;;;;5.11;86.35;100298.44;6222548;28;20231;-70
2023/02/24 08:03:00;;;;;;;0.80;0.80;;;;;;;5.30;87.08;100280.06;6233467;28;20235;-71
2023/02/24 08:06:26;;;;;;;3.13;2.10;;;;;;;5.36;86.56;100286.78;6237778;28;20543;-71
2023/02/24 08:10:09;;;;;;;2.43;1.47;;;;;;;5.32;86.71;100277.28;6226865;28;20235;-69
2023/02/24 08:13:36;;;;;;;3.33;2.50;;;;;;;5.17;87.21;100270.44;6228854;28;20614;-69
2023/02/24 08:16:59;;;;;;;1.90;1.17;;;;;;;5.07;87.76;100262.25;6226359;28;20228;-70
2023/02/24 08:20:28;;;;;;;3.30;1.63;;;;;;;5.54;86.99;100245.25;6223841;28;20923;-69
2023/02/24 08:23:49;;;;;;;1.73;1.73;;;;;;;5.23;87.18;100243.25;6226924;28;20314;-69
2023/02/24 08:27:10;;;;;;;1.63;1.53;;;;;;;5.22;87.76;100242.41;6225007;28;20229;-71
2023/02/24 08:30:37;;;;;;;2.97;1.90;;;;;;;4.94;87.88;100241.97;6221586;28;20232;-69
2023/02/24 08:33:59;;;;;;;2.43;2.00;;;;;;;5.34;87.52;100220.06;6227593;28;20248;-71
2023/02/24 08:37:20;;;;;;;2.03;1.90;;;;;;;5.22;87.52;100204.13;6233379;28;21363;-70
2023/02/24 08:40:50;;;;;;;7.07;3.73;;;;;;;5.68;85.55;100195.06;6228007;28;20250;-70
2023/02/24 08:44:17;;;;;;;6.00;2.43;;;;;;;5.17;87.20;100201.84;6219103;28;20219;-68
2023/02/24 08:47:38;;;;;;;2.83;2.57;;;;;;;5.21;87.89;100192.63;6246970;28;20252;-69
2023/02/24 08:51:03;;;;;;;2.97;2.33;;;;;;;5.06;86.86;100177.78;6223093;28;20232;-73
2023/02/24 08:54:25;;;;;;;8.57;2.63;;;;;;;5.50;86.55;100168.94;6223808;28;20814;-70
2023/02/24 08:57:50;;;;;;;2.57;2.33;;;;;;;5.18;87.15;100165.28;6231892;28;20633;-72
2023/02/24 09:01:17;;;;;;;3.93;2.40;;;;;;;5.36;86.67;100156.66;6235566;28;20236;-69
2023/02/24 09:04:38;;;;;;;2.60;2.40;;;;;;;5.54;87.28;100154.38;6217289;28;20329;-69
2023/02/24 09:08:00;;;;;;;2.53;2.33;;;;;;;5.22;88.07;100148.03;6240440;28;20594;-69
2023/02/24 09:11:21;;;;;;;6.77;3.90;;;;;;;5.11;89.27;100142.69;6230206;28;20237;-69
2023/02/24 09:14:42;;;;;;;2.90;2.37;;;;;;;5.11;87.90;100137.34;6224169;28;20505;-70
2023/02/24 09:18:07;;;;;;;2.40;2.20;;;;;;;5.72;87.54;100119.94;6252316;28;20347;-71
2023/02/24 09:25:22;;;;;;;2.17;1.97;;;;;;;5.54;87.10;100098.22;6224424;28;20256;-71
2023/02/24 09:28:53;;;;;;;2.83;2.57;;;;;;;5.55;87.05;100110.59;6222110;28;20708;-70
2023/02/24 09:32:15;;;;;;;4.17;3.13;;;;;;;5.42;87.71;100104.56;6234413;28;20277;-72
2023/02/24 09:35:40;;;;;;;1.50;1.47;;;;;;;5.35;88.23;100101.53;6223644;28;20834;-68
2023/02/24 09:39:13;;;;;;;2.80;2.20;;;;;;;5.57;87.48;100114.88;6221357;28;20232;-71
2023/02/24 09:42:45;;;;;;;3.07;2.87;;;;;;;5.33;88.05;100098.13;6232151;28;20563;-68
2023/02/24 09:46:13;;;;;;;6.37;3.33;;;;;;;5.58;87.29;100091.66;6240938;28;20781;-70
2023/02/24 09:49:45;;;;;;;2.70;2.50;;;;;;;5.51;87.95;100074.41;6234016;28;20588;-70
2023/02/24 09:53:16;;;;;;;5.77;2.50;;;;;;;5.53;87.85;100096.53;6246663;28;20223;-70
2023/02/24 09:56:41;;;;;;;2.70;2.50;;;;;;;5.52;87.89;100066.28;6232966;28;20235;-69
2023/02/24 10:00:32;;;;;;;2.87;2.03;;;;;;;5.36;88.68;100064.97;6236200;28;20227;-69
2023/02/24 10:04:03;;;;;;;2.20;2.00;;;;;;;5.94;87.62;100061.97;6240164;28;20224;-70
2023/02/24 10:07:37;;;;;;;2.50;2.40;;;;;;;5.43;88.48;100055.47;6237083;28;20224;-71
2023/02/24 10:11:05;;;;;;;3.93;2.60;;;;;;;5.59;88.51;100051.44;6239260;28;20567;-69
2023/02/24 10:14:37;;;;;;;3.27;2.03;;;;;;;5.92;87.80;100047.88;6216553;28;20231;-67
2023/02/24 10:18:25;;;;;;;2.77;2.40;;;;;;;5.75;88.38;100058.22;6242392;28;20243;-69
2023/02/24 10:22:01;;;;;;;2.87;2.67;;;;;;;5.56;88.71;100056.19;6245687;28;20239;-69
2023/02/24 10:25:34;;;;;;;3.00;2.57;;;;;;;5.61;88.01;100040.63;6230510;28;20620;-70
2023/02/24 10:29:07;;;;;;;1.60;1.50;;;;;;;5.53;88.55;100048.41;6241297;28;20227;-71
2023/02/24 10:32:40;;;;;;;2.93;2.33;;;;;;;6.10;87.50;100011.53;6228666;28;20232;-72
2023/02/24 10:36:08;;;;;;;2.70;2.50;;;;;;;5.91;87.61;100013.19;6237785;28;20230;-69
2023/02/24 10:39:32;;;;;;;1.93;1.83;;;;;;;6.24;85.88;100003.19;6215798;28;20528;-71
2023/02/24 10:43:09;;;;;;;2.43;2.23;;;;;;;6.39;86.34;99998.34;6236125;28;20327;-71
2023/02/24 10:46:32;;;;;;;2.70;2.40;;;;;;;6.19;87.09;100002.75;6223760;28;20509;-68
2023/02/24 10:49:58;;;;;;;2.67;2.43;;;;;;;6.14;87.20;99996.06;6230117;28;20309;-70
2023/02/24 10:53:33;;;;;;;1.87;1.77;;;;;;;6.32;86.38;99989.19;6235375;28;20232;-71
2023/02/24 10:57:06;;;;;;;2.53;1.90;;;;;;;6.06;87.31;99980.69;6235341;28;20240;-70
2023/02/24 11:00:50;;;;;;;3.67;2.73;;;;;;;6.22;87.01;99973.03;6236816;28;20235;-70
2023/02/24 11:04:32;;;;;;;1.87;1.77;;;;;;;6.02;87.73;99971.22;6224355;28;20322;-69
2023/02/24 11:08:06;;;;;;;3.47;3.20;;;;;;;6.04;88.84;99953.22;6241798;28;20265;-69
2023/02/24 11:17:13;;;;;;;2.67;2.17;;;;;;;6.14;88.93;99956.78;6234014;28;20231;-72
2023/02/24 11:19:12;;;;;;;2.13;2.03;;;;;;;6.31;88.40;99924.09;6150439;28;20722;-71
2023/02/24 11:22:39;;;;;;;3.53;3.23;;;;;;;6.22;89.00;99922.19;6156620;28;20606;-71
2023/02/24 11:26:03;;;;;;;2.53;2.33;;;;;;;6.58;87.17;99907.44;6226571;28;20598;-70
2023/02/24 11:29:41;;;;;;;1.97;1.70;;;;;;;6.56;87.32;99912.09;6206068;28;20228;-69
2023/02/24 11:33:17;;;;;;;2.33;2.13;;;;;;;7.12;85.81;99888.28;6220486;28;20341;-70
2023/02/24 11:36:47;;;;;;;4.50;2.70;;;;;;;6.82;86.80;99899.91;6224409;28;20228;-70
2023/02/24 11:40:17;;;;;;;2.30;2.13;;;;;;;6.89;86.40;99893.03;6226546;28;20232;-70
2023/02/24 11:43:42;;;;;;;11.40;2.20;;;;;;;7.06;86.02;99896.88;6232969;28;20236;-70
2023/02/24 11:47:08;;;;;;;2.70;2.50;;;;;;;6.73;87.40;99875.78;6230942;28;20676;-70
2023/02/24 11:50:38;;;;;;;4.20;3.23;;;;;;;6.74;86.57;99907.78;6236347;28;20227;-69
2023/02/24 11:54:03;;;;;;;3.60;2.13;;;;;;;7.54;84.94;99870.97;6213795;28;20798;-70
2023/02/24 11:57:30;;;;;;;6.27;4.43;;;;;;;6.88;86.76;99856.53;6232415;28;21774;-69
2023/02/24 12:00:57;;;;;;;3.53;3.23;;;;;;;7.49;85.09;99842.88;6226070;28;20247;-70
2023/02/24 12:04:27;;;;;;;4.63;3.53;;;;;;;6.91;85.98;99833.94;6214450;28;20244;-69
2023/02/24 12:07:52;;;;;;;6.60;3.03;;;;;;;7.03;86.29;99828.31;6236238;28;20251;-70
2023/02/24 12:11:21;;;;;;;2.03;1.90;;;;;;;7.10;86.07;99821.44;6228653;28;20227;-71
2023/02/24 12:14:47;;;;;;;2.20;2.10;;;;;;;7.86;84.53;99807.09;6214485;28;20227;-71
2023/02/24 12:18:17;;;;;;;2.93;2.67;;;;;;;8.03;83.14;99808.19;6227282;28;20229;-71
2023/02/24 12:21:42;;;;;;;3.03;2.77;;;;;;;7.99;82.56;99810.31;6228462;28;20258;-70
2023/02/24 12:25:04;;;;;;;3.87;3.07;;;;;;;7.76;82.75;99795.53;6209324;28;22151;-69
2023/02/24 12:28:42;;;;;;;1.87;1.77;;;;;;;7.77;84.96;99794.56;6228839;28;20610;-70
2023/02/24 12:32:14;;;;;;;2.40;2.00;;;;;;;8.90;81.21;99793.34;6210159;28;20243;-70
2023/02/24 12:35:45;;;;;;;3.33;3.07;;;;;;;7.52;84.81;99788.97;6233853;28;20231;-70
2023/02/24 12:39:14;;;;;;;10.03;3.87;;;;;;;7.86;84.57;99792.84;6221342;28;20232;-71
2023/02/24 12:42:45;;;;;;;3.53;2.73;;;;;;;8.10;84.93;99790.50;6245613;28;20232;-71
2023/02/24 12:46:15;;;;;;;5.37;2.30;;;;;;;7.72;85.76;99786.09;6232326;28;20815;-70
2023/02/24 12:50:06;;;;;;;1.87;1.77;;;;;;;7.61;87.98;99780.06;6228987;28;20235;-71
2023/02/24 12:53:37;;;;;;;5.20;1.90;;;;;;;8.03;86.13;99774.13;6238513;28;20247;-69
2023/02/24 12:57:08;;;;;;;3.40;2.93;;;;;;;7.83;87.02;99783.25;6247862;28;20710;-72
2023/02/24 13:00:40;;;;;;;3.90;2.80;;;;;;;7.92;86.33;99770.78;6224073;28;20251;-71
2023/02/24 13:04:14;;;;;;;6.43;3.73;;;;;;;7.39;88.05;99770.50;6221432;28;20255;-70
2023/02/24 13:07:48;;;;;;;2.70;2.50;;;;;;;8.32;85.47;99757.09;6254859;28;20223;-71
2023/02/24 13:11:21;;;;;;;5.17;2.23;;;;;;;7.96;86.83;99758.78;6239708;28;20227;-71
2023/02/24 13:14:44;;;;;;;3.07;2.23;;;;;;;8.43;85.92;99743.44;6226522;28;20351;-70
2023/02/24 13:18:06;;;;;;;2.50;2.03;;;;;;;9.52;81.86;99722.47;6243911;28;20233;-70
2023/02/24 13:21:26;;;;;;;3.63;2.30;;;;;;;8.78;83.97;99722.84;6244008;28;20235;-68
2023/02/24 13:24:58;;;;;;;4.00;2.03;;;;;;;8.97;82.85;99713.78;6216761;28;20265;-70
2023/02/24 13:28:24;;;;;;;3.43;3.23;;;;;;;8.34;85.72;99720.19;6219182;28;20240;-72
2023/02/24 13:31:49;;;;;;;4.80;3.47;;;;;;;8.69;85.25;99706.81;6232134;28;20232;-68
2023/02/24 13:35:33;;;;;;;4.07;2.37;;;;;;;8.12;87.32;99704.44;6234256;28;20226;-69
2023/02/24 13:39:06;;;;;;;4.77;2.43;;;;;;;8.54;87.40;99693.06;6226600;28;20232;-70
2023/02/24 13:42:28;;;;;;;2.93;2.10;;;;;;;8.22;88.21;99692.66;6235167;28;20649;-69
2023/02/24 13:45:55;;;;;;;4.13;2.23;;;;;;;8.39;87.84;99705.31;6233490;28;20238;-71
2023/02/24 13:49:26;;;;;;;3.13;2.27;;;;;;;8.63;87.29;99691.31;6229012;28;20228;-71
2023/02/24 13:53:01;;;;;;;1.87;1.77;;;;;;;8.26;87.93;99693.25;6224593;28;20238;-68
2023/02/24 13:56:36;;;;;;;5.77;2.37;;;;;;;9.03;85.05;99704.28;6229946;28;20276;-69
2023/02/24 14:00:09;;;;;;;2.33;1.63;;;;;;;9.12;83.80;99684.50;6222088;28;20280;-69
2023/02/24 14:03:33;;;;;;;3.33;1.43;;;;;;;9.26;81.15;99678.59;6224843;28;20236;-70
2023/02/24 14:06:58;;;;;;;1.80;1.53;;;;;;;9.63;79.32;99660.31;6220110;28;20240;-69
2023/02/24 14:10:22;;;;;;;3.43;1.90;;;;;;;10.29;76.61;99653.22;6221489;28;20235;-72
2023/02/24 14:13:48;;;;;;;3.60;1.27;;;;;;;10.86;72.64;99643.38;6235194;28;20228;-71
2023/02/24 14:17:23;;;;;;;8.40;2.90;;;;;;;12.45;63.51;99636.84;6229411;28;20220;-72
2023/02/24 14:20:44;;;;;;;5.57;1.43;;;;;;;12.70;62.16;99638.34;6223088;28;20616;-71
2023/02/24 14:24:11;;;;;;;2.17;1.50;;;;;;;14.20;57.42;99630.91;6215819;28;20240;-72
2023/02/24 14:27:32;;;;;;;3.53;1.33;;;;;;;13.50;58.45;99628.69;6246595;28;21070;-71
2023/02/24 14:30:57;;;;;;;1.73;1.60;;;;;;;15.80;51.89;99624.72;6211618;28;20236;-72
2023/02/24 14:34:20;;;;;;;4.37;1.50;;;;;;;16.09;50.97;99625.47;6225545;28;20307;-72
2023/02/24 14:37:42;;;;;;;1.63;1.53;;;;;;;16.73;48.33;99624.91;6241199;28;20295;-72
2023/02/24 14:41:05;;;;;;;8.33;1.53;;;;;;;14.60;52.85;99619.53;6247628;28;20236;-70
2023/02/24 14:44:28;;;;;;;2.27;1.93;;;;;;;12.97;58.52;99623.44;6224728;28;20239;-72
2023/02/24 14:47:49;;;;;;;2.63;1.40;;;;;;;11.58;64.76;99615.44;6236234;28;21683;-72
2023/02/24 14:51:13;;;;;;;3.53;2.13;;;;;;;12.76;58.88;99607.91;6231132;28;20231;-72
2023/02/24 14:54:44;;;;;;;2.07;1.33;;;;;;;10.49;69.77;99607.13;6237281;28;20223;-72
2023/02/24 14:58:13;;;;;;;3.40;1.70;;;;;;;10.20;72.24;99589.56;6245271;28;20399;-71
2023/02/24 15:01:38;;;;;;;3.97;1.90;;;;;;;10.03;73.42;99587.81;6239781;28;20228;-70
2023/02/24 15:05:00;;;;;;;5.57;2.57;;;;;;;10.33;72.14;99589.06;6221097;28;20236;-70
2023/02/24 15:08:33;;;;;;;5.67;2.20;;;;;;;9.82;75.79;99594.63;6240653;28;20236;-70
2023/02/24 15:11:54;;;;;;;1.27;1.27;;;;;;;10.40;74.58;99593.66;6225000;28;20751;-72
2023/02/24 15:15:21;;;;;;;3.40;1.97;;;;;;;9.89;75.32;99598.38;6237451;28;20324;-71
2023/02/24 15:18:42;;;;;;;6.43;1.27;;;;;;;10.23;73.39;99591.06;6244076;28;20509;-70
2023/02/24 15:22:04;;;;;;;1.70;1.43;;;;;;;11.53;81.01;99584.59;6229726;28;20417;-72
2023/02/24 15:25:27;;;;;;;2.37;1.27;;;;;;;12.47;76.62;99588.00;6225108;28;20231;-73
2023/02/24 15:28:57;;;;;;;1.57;1.43;;;;;;;11.75;71.63;99581.16;6226712;28;20240;-72
2023/02/24 15:32:21;;;;;;;2.77;1.63;;;;;;;11.55;73.35;99587.94;6230143;28;20236;-72
2023/02/24 15:35:48;;;;;;;1.13;1.13;;;;;;;11.52;71.36;99577.50;6231445;28;20231;-71
2023/02/24 15:39:19;;;;;;;7.80;1.83;;;;;;;10.52;71.59;99577.97;6228294;28;20232;-71
2023/02/24 15:42:48;;;;;;;2.77;1.00;;;;;;;10.44;71.58;99567.19;6248084;28;20237;-71
2023/02/24 15:46:22;;;;;;;2.00;1.07;;;;;;;10.77;70.65;99566.19;6236666;28;20231;-71
2023/02/24 15:49:44;;;;;;;2.40;1.17;;;;;;;10.77;70.06;99563.50;6228037;28;20232;-71
2023/02/24 15:53:07;;;;;;;5.80;2.80;;;;;;;10.34;71.57;99559.28;6237563;28;20674;-71
2023/02/24 15:56:29;;;;;;;4.77;1.27;;;;;;;10.38;72.09;99552.56;6236559;28;20259;-70
2023/02/24 15:59:50;;;;;;;5.17;2.67;;;;;;;10.22;72.94;99554.41;6236459;28;20593;-71
2023/02/24 16:03:11;;;;;;;7.60;1.80;;;;;;;9.81;75.42;99547.19;6243813;28;20602;-71
2023/02/24 16:06:34;;;;;;;3.90;1.50;;;;;;;9.86;75.12;99553.78;6231635;28;20232;-71
2023/02/24 16:09:57;;;;;;;2.63;1.23;;;;;;;10.12;74.02;99548.28;6217189;28;20231;-70
2023/02/24 16:13:21;;;;;;;4.70;1.80;;;;;;;10.20;73.32;99549.16;6227728;28;20227;-71
2023/02/24 16:16:42;;;;;;;2.65;1.90;;;;;;;10.08;73.68;99553.16;6224690;28;20772;-71
2023/02/24 16:20:07;;;;;;;9.27;2.67;;;;;;;9.93;73.49;99543.22;6231247;28;20314;-70
2023/02/24 16:23:37;;;;;;;6.23;2.43;;;;;;;9.75;73.48;99543.31;6245024;28;20324;-71
2023/02/24 16:26:58;;;;;;;4.23;1.57;;;;;;;9.84;72.99;99547.72;6229357;28;20319;-74